sensor_id;sensor_type;location;lat;lon;timestamp;pressure;altitude;pressure_sealevel;temperature;humidity
72438;BME280;60444;43.534;-5.674;2022-12-07T00:01:44;101675.38;;;13.26;99.19
72438;BME280;60444;43.534;-5.674;2022-12-07T00:04:11;101672.44;;;13.31;100.00
72438;BME280;60444;43.534;-5.674;2022-12-07T00:06:40;101677.75;;;13.34;100.00
72438;BME280;60444;43.534;-5.674;2022-12-07T00:09:10;101679.50;;;13.35;99.05
72438;BME280;60444;43.534;-5.674;2022-12-07T00:11:36;101688.63;;;13.34;98.51
72438;BME280;60444;43.534;-5.674;2022-12-07T00:14:04;101689.47;;;13.34;98.70
72438;BME280;60444;43.534;-5.674;2022-12-07T00:16:32;101682.28;;;13.33;98.95
72438;BME280;60444;43.534;-5.674;2022-12-07T00:18:58;101683.22;;;13.32;99.06
72438;BME280;60444;43.534;-5.674;2022-12-07T00:21:32;101681.41;;;13.33;100.00
72438;BME280;60444;43.534;-5.674;2022-12-07T00:23:59;101647.81;;;13.15;100.00
72438;BME280;60444;43.534;-5.674;2022-12-07T00:26:36;101678.69;;;13.33;100.00
72438;BME280;60444;43.534;-5.674;2022-12-07T00:29:08;101672.50;;;13.29;99.90
72438;BME280;60444;43.534;-5.674;2022-12-07T00:31:36;101648.75;;;13.14;99.89
72438;BME280;60444;43.534;-5.674;2022-12-07T00:34:05;101672.59;;;13.28;100.00
72438;BME280;60444;43.534;-5.674;2022-12-07T00:36:31;101672.59;;;13.28;100.00
72438;BME280;60444;43.534;-5.674;2022-12-07T00:38:58;101670.81;;;13.27;100.00
72438;BME280;60444;43.534;-5.674;2022-12-07T00:41:25;101660.97;;;13.24;100.00
72438;BME280;60444;43.534;-5.674;2022-12-07T00:43:51;101654.81;;;13.21;100.00
72438;BME280;60444;43.534;-5.674;2022-12-07T00:46:18;101657.38;;;13.24;100.00
72438;BME280;60444;43.534;-5.674;2022-12-07T00:48:44;101658.34;;;13.23;99.92
72438;BME280;60444;43.534;-5.674;2022-12-07T00:51:11;101644.06;;;13.18;99.35
72438;BME280;60444;43.534;-5.674;2022-12-07T00:53:37;101637.75;;;13.17;100.00
72438;BME280;60444;43.534;-5.674;2022-12-07T00:56:07;101635.88;;;13.19;100.00
72438;BME280;60444;43.534;-5.674;2022-12-07T00:58:33;101611.84;;;13.10;99.97
72438;BME280;60444;43.534;-5.674;2022-12-07T01:01:03;101622.31;;;13.18;99.67
72438;BME280;60444;43.534;-5.674;2022-12-07T01:03:29;101615.41;;;13.11;100.00
72438;BME280;60444;43.534;-5.674;2022-12-07T01:05:56;101616.84;;;13.19;99.74
72438;BME280;60444;43.534;-5.674;2022-12-07T01:08:23;101625.03;;;13.18;99.95
72438;BME280;60444;43.534;-5.674;2022-12-07T01:10:49;101621.47;;;13.17;99.99
72438;BME280;60444;43.534;-5.674;2022-12-07T01:13:22;101615.31;;;13.14;100.00
72438;BME280;60444;43.534;-5.674;2022-12-07T01:15:47;101611.78;;;13.12;100.00
72438;BME280;60444;43.534;-5.674;2022-12-07T01:18:13;101602.16;;;13.05;100.00
72438;BME280;60444;43.534;-5.674;2022-12-07T01:20:39;101604.56;;;13.11;100.00
72438;BME280;60444;43.534;-5.674;2022-12-07T01:23:04;101599.44;;;13.05;100.00
72438;BME280;60444;43.534;-5.674;2022-12-07T01:25:30;101599.28;;;13.08;100.00
72438;BME280;60444;43.534;-5.674;2022-12-07T01:27:55;101610.88;;;13.11;100.00
72438;BME280;60444;43.534;-5.674;2022-12-07T01:30:21;101574.50;;;12.95;100.00
72438;BME280;60444;43.534;-5.674;2022-12-07T01:32:46;101589.50;;;13.04;100.00
72438;BME280;60444;43.534;-5.674;2022-12-07T01:35:12;101600.97;;;13.10;100.00
72438;BME280;60444;43.534;-5.674;2022-12-07T01:37:38;101588.56;;;13.05;100.00
72438;BME280;60444;43.534;-5.674;2022-12-07T01:40:05;101596.47;;;13.09;100.00
72438;BME280;60444;43.534;-5.674;2022-12-07T01:42:31;101592.22;;;13.04;100.00
72438;BME280;60444;43.534;-5.674;2022-12-07T01:48:00;101592.34;;;13.01;100.00
72438;BME280;60444;43.534;-5.674;2022-12-07T01:50:27;101605.69;;;13.07;100.00
72438;BME280;60444;43.534;-5.674;2022-12-07T01:52:59;101601.09;;;13.07;100.00
72438;BME280;60444;43.534;-5.674;2022-12-07T01:55:26;101579.84;;;12.97;100.00
72438;BME280;60444;43.534;-5.674;2022-12-07T01:57:53;101600.16;;;13.08;100.00
72438;BME280;60444;43.534;-5.674;2022-12-07T02:00:19;101597.44;;;13.08;100.00
72438;BME280;60444;43.534;-5.674;2022-12-07T02:02:53;101595.66;;;13.07;100.00
72438;BME280;60444;43.534;-5.674;2022-12-07T02:05:19;101588.66;;;13.03;100.00
72438;BME280;60444;43.534;-5.674;2022-12-07T02:07:47;101609.97;;;13.11;100.00
72438;BME280;60444;43.534;-5.674;2022-12-07T02:10:18;101580.50;;;13.02;100.00
72438;BME280;60444;43.534;-5.674;2022-12-07T02:12:48;101579.53;;;13.04;100.00
72438;BME280;60444;43.534;-5.674;2022-12-07T02:15:15;101563.63;;;12.95;100.00
72438;BME280;60444;43.534;-5.674;2022-12-07T02:18:16;101588.25;;;13.11;100.00
72438;BME280;60444;43.534;-5.674;2022-12-07T02:20:45;101591.94;;;13.10;100.00
72438;BME280;60444;43.534;-5.674;2022-12-07T02:23:29;101592.75;;;13.12;100.00
72438;BME280;60444;43.534;-5.674;2022-12-07T02:31:19;101586.66;;;13.07;100.00
72438;BME280;60444;43.534;-5.674;2022-12-07T02:34:00;101594.72;;;13.08;100.00
72438;BME280;60444;43.534;-5.674;2022-12-07T02:36:34;101598.25;;;13.10;100.00
72438;BME280;60444;43.534;-5.674;2022-12-07T02:39:41;101605.59;;;13.08;100.00
72438;BME280;60444;43.534;-5.674;2022-12-07T02:42:23;101587.84;;;13.00;100.00
72438;BME280;60444;43.534;-5.674;2022-12-07T02:44:51;101606.44;;;13.09;100.00
72438;BME280;60444;43.534;-5.674;2022-12-07T02:47:19;101593.09;;;13.04;100.00
72438;BME280;60444;43.534;-5.674;2022-12-07T02:49:46;101590.38;;;13.04;100.00
72438;BME280;60444;43.534;-5.674;2022-12-07T02:52:12;101577.13;;;12.97;100.00
72438;BME280;60444;43.534;-5.674;2022-12-07T02:54:38;101591.38;;;13.02;100.00
72438;BME280;60444;43.534;-5.674;2022-12-07T03:15:48;101581.66;;;12.96;100.00
72438;BME280;60444;43.534;-5.674;2022-12-07T03:18:20;101588.66;;;13.03;100.00
72438;BME280;60444;43.534;-5.674;2022-12-07T03:20:50;101563.81;;;12.91;100.00
72438;BME280;60444;43.534;-5.674;2022-12-07T03:23:18;101579.91;;;12.95;100.00
72438;BME280;60444;43.534;-5.674;2022-12-07T03:25:52;101585.06;;;13.01;100.00
72438;BME280;60444;43.534;-5.674;2022-12-07T03:28:22;101588.66;;;13.03;100.00
72438;BME280;60444;43.534;-5.674;2022-12-07T03:31:00;101569.13;;;12.94;100.00
72438;BME280;60444;43.534;-5.674;2022-12-07T03:33:34;101585.03;;;13.03;100.00
72438;BME280;60444;43.534;-5.674;2022-12-07T03:36:06;101575.06;;;13.02;100.00
72438;BME280;60444;43.534;-5.674;2022-12-07T03:39:37;101547.69;;;12.88;100.00
72438;BME280;60444;43.534;-5.674;2022-12-07T03:41:36;101569.88;;;12.97;100.00
72438;BME280;60444;43.534;-5.674;2022-12-07T03:44:03;101551.22;;;12.90;100.00
72438;BME280;60444;43.534;-5.674;2022-12-07T03:46:50;101576.97;;;13.00;100.00
72438;BME280;60444;43.534;-5.674;2022-12-07T03:49:27;101572.50;;;12.99;100.00
72438;BME280;60444;43.534;-5.674;2022-12-07T03:54:36;101559.38;;;12.90;100.00
72438;BME280;60444;43.534;-5.674;2022-12-07T03:57:05;101565.34;;;12.98;100.00
72438;BME280;60444;43.534;-5.674;2022-12-07T03:59:32;101568.91;;;12.98;100.00
72438;BME280;60444;43.534;-5.674;2022-12-07T04:02:03;101564.63;;;12.93;100.00
72438;BME280;60444;43.534;-5.674;2022-12-07T04:04:29;101568.81;;;13.00;100.00
72438;BME280;60444;43.534;-5.674;2022-12-07T04:06:54;101543.16;;;12.88;100.00
72438;BME280;60444;43.534;-5.674;2022-12-07T04:09:20;101556.38;;;12.96;100.00
72438;BME280;60444;43.534;-5.674;2022-12-07T04:11:46;101547.53;;;12.91;100.00
72438;BME280;60444;43.534;-5.674;2022-12-07T04:14:14;101548.31;;;12.94;100.00
72438;BME280;60444;43.534;-5.674;2022-12-07T04:16:51;101550.78;;;12.99;100.00
72438;BME280;60444;43.534;-5.674;2022-12-07T04:19:19;101540.00;;;12.97;100.00
72438;BME280;60444;43.534;-5.674;2022-12-07T04:21:46;101547.09;;;13.00;100.00
72438;BME280;60444;43.534;-5.674;2022-12-07T04:24:13;101552.53;;;13.00;100.00
72438;BME280;60444;43.534;-5.674;2022-12-07T04:26:40;101530.59;;;12.86;100.00
72438;BME280;60444;43.534;-5.674;2022-12-07T04:29:06;101540.34;;;12.90;100.00
72438;BME280;60444;43.534;-5.674;2022-12-07T04:31:32;101548.00;;;13.00;100.00
72438;BME280;60444;43.534;-5.674;2022-12-07T04:33:58;101538.44;;;12.92;100.00
72438;BME280;60444;43.534;-5.674;2022-12-07T04:36:23;101548.16;;;12.97;100.00
72438;BME280;60444;43.534;-5.674;2022-12-07T04:38:49;101551.59;;;13.01;100.00
72438;BME280;60444;43.534;-5.674;2022-12-07T04:41:14;101532.13;;;12.91;100.00
72438;BME280;60444;43.534;-5.674;2022-12-07T04:43:40;101535.59;;;12.95;100.00
72438;BME280;60444;43.534;-5.674;2022-12-07T04:46:05;101526.94;;;12.87;100.00
72438;BME280;60444;43.534;-5.674;2022-12-07T04:48:31;101519.81;;;12.84;100.00
72438;BME280;60444;43.534;-5.674;2022-12-07T04:50:56;101523.09;;;12.91;100.00
72438;BME280;60444;43.534;-5.674;2022-12-07T04:53:22;101538.19;;;12.98;100.00
72438;BME280;60444;43.534;-5.674;2022-12-07T04:55:48;101515.34;;;12.83;100.00
72438;BME280;60444;43.534;-5.674;2022-12-07T04:58:16;101525.03;;;12.89;100.00
72438;BME280;60444;43.534;-5.674;2022-12-07T05:00:42;101517.00;;;12.86;100.00
72438;BME280;60444;43.534;-5.674;2022-12-07T05:03:07;101514.44;;;12.83;100.00
72438;BME280;60444;43.534;-5.674;2022-12-07T05:05:33;101517.97;;;12.85;100.00
72438;BME280;60444;43.534;-5.674;2022-12-07T05:07:58;101522.31;;;12.89;100.00
72438;BME280;60444;43.534;-5.674;2022-12-07T05:10:24;101515.41;;;12.82;100.00
72438;BME280;60444;43.534;-5.674;2022-12-07T05:12:49;101522.22;;;12.90;100.00
72438;BME280;60444;43.534;-5.674;2022-12-07T05:15:15;101541.81;;;12.97;100.00
72438;BME280;60444;43.534;-5.674;2022-12-07T05:17:44;101524.06;;;12.90;100.00
72438;BME280;60444;43.534;-5.674;2022-12-07T05:20:10;101508.19;;;12.81;100.00
72438;BME280;60444;43.534;-5.674;2022-12-07T05:22:35;101510.03;;;12.80;100.00
72438;BME280;60444;43.534;-5.674;2022-12-07T05:25:01;101527.75;;;12.89;100.00
72438;BME280;60444;43.534;-5.674;2022-12-07T05:27:29;101522.50;;;12.84;100.00
72438;BME280;60444;43.534;-5.674;2022-12-07T05:29:54;101516.28;;;12.82;100.00
72438;BME280;60444;43.534;-5.674;2022-12-07T05:32:20;101507.38;;;12.79;100.00
72438;BME280;60444;43.534;-5.674;2022-12-07T05:34:45;101506.56;;;12.77;100.00
72438;BME280;60444;43.534;-5.674;2022-12-07T05:37:11;101502.03;;;12.77;100.00
72438;BME280;60444;43.534;-5.674;2022-12-07T05:39:36;101488.69;;;12.73;100.00
72438;BME280;60444;43.534;-5.674;2022-12-07T05:42:06;101520.63;;;12.86;100.00
72438;BME280;60444;43.534;-5.674;2022-12-07T05:44:43;101514.38;;;12.84;100.00
72438;BME280;60444;43.534;-5.674;2022-12-07T05:47:10;101499.47;;;12.74;100.00
72438;BME280;60444;43.534;-5.674;2022-12-07T05:49:36;101503.66;;;12.81;100.00
72438;BME280;60444;43.534;-5.674;2022-12-07T05:52:02;101496.69;;;12.76;100.00
72438;BME280;60444;43.534;-5.674;2022-12-07T05:54:28;101495.88;;;12.74;100.00
72438;BME280;60444;43.534;-5.674;2022-12-07T05:56:54;101498.44;;;12.77;100.00
72438;BME280;60444;43.534;-5.674;2022-12-07T05:59:20;101502.13;;;12.76;100.00
72438;BME280;60444;43.534;-5.674;2022-12-07T06:02:17;101518.78;;;12.87;100.00
72438;BME280;60444;43.534;-5.674;2022-12-07T06:04:45;101515.25;;;12.85;100.00
72438;BME280;60444;43.534;-5.674;2022-12-07T06:07:12;101516.19;;;12.84;100.00
72438;BME280;60444;43.534;-5.674;2022-12-07T06:09:39;101492.44;;;12.70;100.00
72438;BME280;60444;43.534;-5.674;2022-12-07T06:12:05;101492.28;;;12.73;100.00
72438;BME280;60444;43.534;-5.674;2022-12-07T06:14:49;101496.84;;;12.73;100.00
72438;BME280;60444;43.534;-5.674;2022-12-07T06:17:15;101512.75;;;12.80;100.00
72438;BME280;60444;43.534;-5.674;2022-12-07T06:19:41;101499.41;;;12.76;100.00
72438;BME280;60444;43.534;-5.674;2022-12-07T06:22:08;101487.06;;;12.69;100.00
72438;BME280;60444;43.534;-5.674;2022-12-07T06:24:34;101501.97;;;12.79;100.00
72438;BME280;60444;43.534;-5.674;2022-12-07T06:27:00;101510.09;;;12.79;100.00
72438;BME280;60444;43.534;-5.674;2022-12-07T06:29:26;101475.59;;;12.62;100.00
72438;BME280;60444;43.534;-5.674;2022-12-07T06:31:51;101486.09;;;12.70;100.00
72438;BME280;60444;43.534;-5.674;2022-12-07T06:34:19;101491.41;;;12.73;100.00
72438;BME280;60444;43.534;-5.674;2022-12-07T06:36:46;101500.28;;;12.76;100.00
72438;BME280;60444;43.534;-5.674;2022-12-07T06:39:19;101481.78;;;12.66;100.00
72438;BME280;60444;43.534;-5.674;2022-12-07T06:41:46;101470.16;;;12.62;100.00
72438;BME280;60444;43.534;-5.674;2022-12-07T06:44:11;101489.78;;;12.69;100.00
72438;BME280;60444;43.534;-5.674;2022-12-07T06:46:37;101474.75;;;12.62;100.00
72438;BME280;60444;43.534;-5.674;2022-12-07T06:49:03;101480.91;;;12.65;100.00
72438;BME280;60444;43.534;-5.674;2022-12-07T06:51:29;101467.78;;;12.56;100.00
72438;BME280;60444;43.534;-5.674;2022-12-07T06:53:55;101476.41;;;12.64;100.00
72438;BME280;60444;43.534;-5.674;2022-12-07T06:56:20;101501.16;;;12.77;100.00
72438;BME280;60444;43.534;-5.674;2022-12-07T06:58:46;101494.88;;;12.76;100.00
72438;BME280;60444;43.534;-5.674;2022-12-07T07:01:13;101499.41;;;12.76;100.00
72438;BME280;60444;43.534;-5.674;2022-12-07T07:03:39;101501.22;;;12.75;100.00
72438;BME280;60444;43.534;-5.674;2022-12-07T07:06:06;101485.16;;;12.71;100.00
72438;BME280;60444;43.534;-5.674;2022-12-07T07:08:32;101504.69;;;12.79;100.00
72438;BME280;60444;43.534;-5.674;2022-12-07T07:10:58;101502.84;;;12.79;100.00
72438;BME280;60444;43.534;-5.674;2022-12-07T07:13:23;101487.81;;;12.72;100.00
72438;BME280;60444;43.534;-5.674;2022-12-07T07:15:49;101494.88;;;12.76;100.00
72438;BME280;60444;43.534;-5.674;2022-12-07T07:18:14;101477.16;;;12.68;100.00
72438;BME280;60444;43.534;-5.674;2022-12-07T07:20:40;101483.41;;;12.70;100.00
72438;BME280;60444;43.534;-5.674;2022-12-07T07:23:06;101517.09;;;12.84;100.00
72438;BME280;60444;43.534;-5.674;2022-12-07T07:25:32;101513.47;;;12.84;100.00
72438;BME280;60444;43.534;-5.674;2022-12-07T07:27:58;101516.19;;;12.84;100.00
72438;BME280;60444;43.534;-5.674;2022-12-07T07:30:25;101519.88;;;12.83;100.00
72438;BME280;60444;43.534;-5.674;2022-12-07T07:32:50;101529.78;;;12.84;100.00
72438;BME280;60444;43.534;-5.674;2022-12-07T07:35:17;101515.63;;;12.77;100.00
72438;BME280;60444;43.534;-5.674;2022-12-07T07:37:43;101521.84;;;12.79;100.00
72438;BME280;60444;43.534;-5.674;2022-12-07T07:40:09;101524.50;;;12.81;100.00
72438;BME280;60444;43.534;-5.674;2022-12-07T07:42:35;101513.06;;;12.74;100.00
72438;BME280;60444;43.534;-5.674;2022-12-07T07:45:01;101506.00;;;12.70;100.00
72438;BME280;60444;43.534;-5.674;2022-12-07T07:47:26;101525.47;;;12.80;100.00
72438;BME280;60444;43.534;-5.674;2022-12-07T07:49:54;101510.53;;;12.70;100.00
72438;BME280;60444;43.534;-5.674;2022-12-07T07:52:19;101529.19;;;12.77;100.00
72438;BME280;60444;43.534;-5.674;2022-12-07T07:54:45;101531.72;;;12.82;100.00
72438;BME280;60444;43.534;-5.674;2022-12-07T07:57:10;101513.91;;;12.75;100.00
72438;BME280;60444;43.534;-5.674;2022-12-07T07:59:36;101536.97;;;12.85;100.00
72438;BME280;60444;43.534;-5.674;2022-12-07T08:02:02;101510.63;;;12.68;100.00
72438;BME280;60444;43.534;-5.674;2022-12-07T08:04:27;101528.19;;;12.80;100.00
72438;BME280;60444;43.534;-5.674;2022-12-07T08:06:53;101542.56;;;12.82;100.00
72438;BME280;60444;43.534;-5.674;2022-12-07T08:09:18;101522.22;;;12.72;100.00
72438;BME280;60444;43.534;-5.674;2022-12-07T08:11:44;101514.28;;;12.67;100.00
72438;BME280;60444;43.534;-5.674;2022-12-07T08:14:10;101532.13;;;12.73;100.00
72438;BME280;60444;43.534;-5.674;2022-12-07T08:16:37;101545.28;;;12.82;100.00
72438;BME280;60444;43.534;-5.674;2022-12-07T08:19:04;101530.19;;;12.75;100.00
72438;BME280;60444;43.534;-5.674;2022-12-07T08:21:30;101539.16;;;12.77;100.00
72438;BME280;60444;43.534;-5.674;2022-12-07T08:23:57;101548.00;;;12.82;100.00
72438;BME280;60444;43.534;-5.674;2022-12-07T08:26:22;101540.03;;;12.77;100.00
72438;BME280;60444;43.534;-5.674;2022-12-07T08:28:48;101532.78;;;12.78;100.00
72438;BME280;60444;43.534;-5.674;2022-12-07T08:31:16;101516.28;;;12.64;100.00
72438;BME280;60444;43.534;-5.674;2022-12-07T08:33:45;101542.56;;;12.82;100.00
72438;BME280;60444;43.534;-5.674;2022-12-07T08:36:12;101532.78;;;12.78;100.00
72438;BME280;60444;43.534;-5.674;2022-12-07T08:38:39;101507.31;;;12.62;100.00
72438;BME280;60444;43.534;-5.674;2022-12-07T08:41:05;101524.25;;;12.67;100.00
72438;BME280;60444;43.534;-5.674;2022-12-07T08:43:32;101534.63;;;12.77;100.00
72438;BME280;60444;43.534;-5.674;2022-12-07T08:46:20;101538.00;;;12.82;100.00
72438;BME280;60444;43.534;-5.674;2022-12-07T08:48:55;101533.44;;;12.83;100.00
72438;BME280;60444;43.534;-5.674;2022-12-07T08:51:23;101515.06;;;12.69;100.00
72438;BME280;60444;43.534;-5.674;2022-12-07T08:53:49;101524.91;;;12.72;100.00
72438;BME280;60444;43.534;-5.674;2022-12-07T08:56:16;101524.66;;;12.78;100.00
72438;BME280;60444;43.534;-5.674;2022-12-07T08:58:42;101526.28;;;12.82;100.00
72438;BME280;60444;43.534;-5.674;2022-12-07T09:01:08;101498.78;;;12.69;100.00
72438;BME280;60444;43.534;-5.674;2022-12-07T09:03:33;101512.91;;;12.77;100.00
72438;BME280;60444;43.534;-5.674;2022-12-07T09:05:59;101521.56;;;12.85;100.00
72438;BME280;60444;43.534;-5.674;2022-12-07T09:08:30;101528.84;;;12.85;100.00
72438;BME280;60444;43.534;-5.674;2022-12-07T09:10:56;101496.97;;;12.70;100.00
72438;BME280;60444;43.534;-5.674;2022-12-07T09:13:22;101521.84;;;12.79;100.00
72438;BME280;60444;43.534;-5.674;2022-12-07T09:15:47;101534.19;;;12.86;100.00
72438;BME280;60444;43.534;-5.674;2022-12-07T09:18:13;101535.28;;;12.82;100.00
72438;BME280;60444;43.534;-5.674;2022-12-07T09:20:38;101524.91;;;12.72;100.00
72438;BME280;60444;43.534;-5.674;2022-12-07T09:23:06;101519.50;;;12.72;100.00
72438;BME280;60444;43.534;-5.674;2022-12-07T09:25:33;101526.56;;;12.76;100.00
72438;BME280;60444;43.534;-5.674;2022-12-07T09:27:58;101537.78;;;12.87;100.00
72438;BME280;60444;43.534;-5.674;2022-12-07T09:30:25;101511.34;;;12.72;100.00
72438;BME280;60444;43.534;-5.674;2022-12-07T09:32:53;101519.50;;;12.72;100.00
72438;BME280;60444;43.534;-5.674;2022-12-07T09:35:19;101537.41;;;12.76;100.00
72438;BME280;60444;43.534;-5.674;2022-12-07T09:37:44;101563.97;;;12.88;100.00
72438;BME280;60444;43.534;-5.674;2022-12-07T09:40:10;101528.53;;;12.72;100.00
72438;BME280;60444;43.534;-5.674;2022-12-07T09:42:38;101548.50;;;12.90;100.00
72438;BME280;60444;43.534;-5.674;2022-12-07T09:45:35;101544.81;;;12.91;100.00
72438;BME280;60444;43.534;-5.674;2022-12-07T09:48:03;101527.78;;;12.87;100.00
72438;BME280;60444;43.534;-5.674;2022-12-07T09:50:29;101541.97;;;12.94;100.00
72438;BME280;60444;43.534;-5.674;2022-12-07T09:53:10;101524.50;;;12.81;100.00
72438;BME280;60444;43.534;-5.674;2022-12-07T09:55:43;101539.09;;;12.97;100.00
72438;BME280;60444;43.534;-5.674;2022-12-07T09:58:19;101538.19;;;12.98;100.00
72438;BME280;60444;43.534;-5.674;2022-12-07T10:00:45;101533.91;;;12.92;100.00
72438;BME280;60444;43.534;-5.674;2022-12-07T10:03:11;101524.94;;;12.90;100.00
72438;BME280;60444;43.534;-5.674;2022-12-07T10:05:43;101518.63;;;12.90;100.00
72438;BME280;60444;43.534;-5.674;2022-12-07T10:08:11;101545.09;;;13.05;100.00
72438;BME280;60444;43.534;-5.674;2022-12-07T10:10:38;101539.59;;;13.06;100.00
72438;BME280;60444;43.534;-5.674;2022-12-07T10:13:11;101542.16;;;13.09;100.00
72438;BME280;60444;43.534;-5.674;2022-12-07T10:15:48;101526.19;;;13.02;100.00
72438;BME280;60444;43.534;-5.674;2022-12-07T10:18:39;101541.06;;;13.13;100.00
72438;BME280;60444;43.534;-5.674;2022-12-07T10:21:15;101536.53;;;13.14;100.00
72438;BME280;60444;43.534;-5.674;2022-12-07T10:26:46;101529.59;;;13.25;100.00
72438;BME280;60444;43.534;-5.674;2022-12-07T10:29:34;101525.69;;;13.31;100.00
72438;BME280;60444;43.534;-5.674;2022-12-07T10:34:41;101513.09;;;13.30;100.00
72438;BME280;60444;43.534;-5.674;2022-12-07T10:39:49;101519.75;;;13.41;100.00
72438;BME280;60444;43.534;-5.674;2022-12-07T10:42:26;101518.81;;;13.42;100.00
72438;BME280;60444;43.534;-5.674;2022-12-07T10:45:14;101510.47;;;13.45;100.00
72438;BME280;60444;43.534;-5.674;2022-12-07T10:55:27;101485.84;;;13.48;100.00
72438;BME280;60444;43.534;-5.674;2022-12-07T11:01:18;101473.81;;;13.54;100.00
72438;BME280;60444;43.534;-5.674;2022-12-07T11:04:13;101470.88;;;13.59;100.00
72438;BME280;60444;43.534;-5.674;2022-12-07T11:11:59;101435.34;;;13.62;100.00
72438;BME280;60444;43.534;-5.674;2022-12-07T11:14:43;101424.47;;;13.62;100.00
72438;BME280;60444;43.534;-5.674;2022-12-07T11:30:19;101406.28;;;13.81;100.00
72438;BME280;60444;43.534;-5.674;2022-12-07T11:35:50;101405.13;;;13.85;100.00
72438;BME280;60444;43.534;-5.674;2022-12-07T11:38:26;101394.41;;;13.82;100.00
72438;BME280;60444;43.534;-5.674;2022-12-07T11:41:03;101399.63;;;13.86;100.00
72438;BME280;60444;43.534;-5.674;2022-12-07T11:44:02;101403.78;;;13.93;100.00
72438;BME280;60444;43.534;-5.674;2022-12-07T11:46:54;101393.84;;;13.92;100.00
72438;BME280;60444;43.534;-5.674;2022-12-07T11:49:43;101382.66;;;13.98;100.00
72438;BME280;60444;43.534;-5.674;2022-12-07T11:52:25;101384.38;;;13.99;100.00
72438;BME280;60444;43.534;-5.674;2022-12-07T11:54:53;101388.09;;;13.98;100.00
72438;BME280;60444;43.534;-5.674;2022-12-07T11:57:35;101370.00;;;13.97;100.00
72438;BME280;60444;43.534;-5.674;2022-12-07T12:00:06;101367.34;;;13.96;100.00
72438;BME280;60444;43.534;-5.674;2022-12-07T12:02:43;101367.03;;;14.02;100.00
72438;BME280;60444;43.534;-5.674;2022-12-07T12:05:18;101369.66;;;14.03;100.00
72438;BME280;60444;43.534;-5.674;2022-12-07T12:07:48;101360.09;;;13.96;100.00
72438;BME280;60444;43.534;-5.674;2022-12-07T12:10:27;101353.66;;;13.97;100.00
72438;BME280;60444;43.534;-5.674;2022-12-07T12:13:19;101366.72;;;14.08;100.00
72438;BME280;60444;43.534;-5.674;2022-12-07T12:16:01;101367.56;;;14.08;100.00
72438;BME280;60444;43.534;-5.674;2022-12-07T12:18:54;101355.97;;;14.05;100.00
72438;BME280;60444;43.534;-5.674;2022-12-07T12:21:31;101353.03;;;14.09;100.00
72438;BME280;60444;43.534;-5.674;2022-12-07T12:24:04;101357.97;;;14.18;100.00
72438;BME280;60444;43.534;-5.674;2022-12-07T12:26:36;101342.66;;;14.16;100.00
72438;BME280;60444;43.534;-5.674;2022-12-07T12:29:05;101352.03;;;14.27;100.00
72438;BME280;60444;43.534;-5.674;2022-12-07T12:34:03;101317.47;;;14.29;100.00
72438;BME280;60444;43.534;-5.674;2022-12-07T12:46:57;101320.09;;;14.46;100.00
72438;BME280;60444;43.534;-5.674;2022-12-07T12:54:28;101316.56;;;14.44;100.00
72438;BME280;60444;43.534;-5.674;2022-12-07T12:57:24;101303.94;;;14.43;100.00
72438;BME280;60444;43.534;-5.674;2022-12-07T13:02:27;101303.94;;;14.43;100.00
72438;BME280;60444;43.534;-5.674;2022-12-07T13:10:39;101284.63;;;14.48;100.00
72438;BME280;60444;43.534;-5.674;2022-12-07T13:13:28;101289.19;;;14.47;100.00
72438;BME280;60444;43.534;-5.674;2022-12-07T13:18:41;101267.97;;;14.38;100.00
72438;BME280;60444;43.534;-5.674;2022-12-07T13:23:52;101253.44;;;14.53;100.00
72438;BME280;60444;43.534;-5.674;2022-12-07T13:28:47;101249.31;;;14.62;100.00
72438;BME280;60444;43.534;-5.674;2022-12-07T13:33:58;101227.69;;;14.59;100.00
72438;BME280;60444;43.534;-5.674;2022-12-07T13:36:29;101226.91;;;14.57;100.00
72438;BME280;60444;43.534;-5.674;2022-12-07T13:41:57;101218.69;;;14.59;100.00
72438;BME280;60444;43.534;-5.674;2022-12-07T13:44:26;101213.78;;;14.49;100.00
72438;BME280;60444;43.534;-5.674;2022-12-07T13:47:15;101240.88;;;14.67;100.00
72438;BME280;60444;43.534;-5.674;2022-12-07T13:49:55;101212.69;;;14.52;100.00
72438;BME280;60444;43.534;-5.674;2022-12-07T13:52:26;101235.06;;;14.57;100.00
72438;BME280;60444;43.534;-5.674;2022-12-07T13:55:14;101234.47;;;14.52;100.00
72438;BME280;60444;43.534;-5.674;2022-12-07T13:57:40;101204.19;;;14.42;100.00
72438;BME280;60444;43.534;-5.674;2022-12-07T14:00:18;101216.84;;;14.43;100.00
72438;BME280;60444;43.534;-5.674;2022-12-07T14:03:01;101206.84;;;14.44;100.00
72438;BME280;60444;43.534;-5.674;2022-12-07T14:05:34;101177.78;;;14.29;100.00
72438;BME280;60444;43.534;-5.674;2022-12-07T14:08:03;101186.22;;;14.40;100.00
72438;BME280;60444;43.534;-5.674;2022-12-07T14:10:31;101202.88;;;14.49;100.00
72438;BME280;60444;43.534;-5.674;2022-12-07T14:12:58;101158.31;;;14.36;100.00
72438;BME280;60444;43.534;-5.674;2022-12-07T14:15:27;101191.22;;;14.47;100.00
72438;BME280;60444;43.534;-5.674;2022-12-07T14:17:55;101185.56;;;14.50;100.00
72438;BME280;60444;43.534;-5.674;2022-12-07T14:20:39;101196.28;;;14.53;100.00
72438;BME280;60444;43.534;-5.674;2022-12-07T14:23:26;101174.88;;;14.47;100.00
72438;BME280;60444;43.534;-5.674;2022-12-07T14:25:53;101182.06;;;14.48;100.00
72438;BME280;60444;43.534;-5.674;2022-12-07T14:28:33;101180.47;;;14.44;100.00
72438;BME280;60444;43.534;-5.674;2022-12-07T14:31:00;101141.53;;;14.28;100.00
72438;BME280;60444;43.534;-5.674;2022-12-07T14:33:26;101166.97;;;14.43;100.00
72438;BME280;60444;43.534;-5.674;2022-12-07T14:35:53;101177.59;;;14.47;100.00